createdAt,value
2023-04-05T00:02:00.466Z,88.82
2023-04-05T00:04:28.813Z,86.96
2023-04-05T00:06:57.448Z,86.89
2023-04-05T00:09:24.005Z,88.13
2023-04-05T00:11:50.720Z,86.49
2023-04-05T00:14:17.178Z,86.26
2023-04-05T00:16:43.729Z,84.23
2023-04-05T00:19:13.077Z,81.77
2023-04-05T00:21:40.518Z,79.17
2023-04-05T00:24:08.039Z,79.87
2023-04-05T00:26:36.195Z,79.30
2023-04-05T00:29:02.802Z,77.95
2023-04-05T00:31:30.245Z,77.75
2023-04-05T00:33:56.801Z,77.99
2023-04-05T00:36:23.357Z,77.49
2023-04-05T00:38:49.855Z,76.37
2023-04-05T00:41:16.865Z,76.03
2023-04-05T00:43:43.620Z,75.63
2023-04-05T00:46:10.784Z,75.26
2023-04-05T00:48:38.561Z,70.52
2023-04-05T00:51:09.288Z,70.63
2023-04-05T00:53:36.401Z,69.87
2023-04-05T00:56:04.047Z,69.05
2023-04-05T00:58:30.670Z,69.18
2023-04-05T01:01:01.711Z,68.74
2023-04-05T01:03:31.962Z,68.25
2023-04-05T01:06:20.884Z,67.08
2023-04-05T01:09:13.125Z,67.75
2023-04-05T01:11:42.756Z,67.04
2023-04-05T01:14:09.258Z,67.29
2023-04-05T01:16:35.823Z,67.70
2023-04-05T01:19:03.910Z,67.84
2023-04-05T01:21:58.241Z,67.38
2023-04-05T01:24:46.853Z,67.29
2023-04-05T01:28:05.549Z,67.31
2023-04-05T01:30:40.002Z,67.30
2023-04-05T01:33:44.405Z,67.50
2023-04-05T01:36:43.635Z,67.51
2023-04-05T01:39:13.826Z,67.13
2023-04-05T01:41:40.714Z,67.64
2023-04-05T01:44:07.404Z,67.69
2023-04-05T01:46:34.270Z,67.58
2023-04-05T01:49:00.768Z,68.56
2023-04-05T01:51:28.007Z,68.32
2023-04-05T01:53:54.541Z,67.20
2023-04-05T01:56:21.241Z,67.63
2023-04-05T01:58:47.749Z,67.06
2023-04-05T02:01:14.445Z,67.26
2023-04-05T02:03:41.060Z,67.52
2023-04-05T02:06:07.687Z,67.21
2023-04-05T02:08:34.226Z,68.36
2023-04-05T02:11:00.945Z,67.28
2023-04-05T02:13:27.439Z,67.85
2023-04-05T02:15:53.971Z,68.04
2023-04-05T02:18:30.283Z,68.32
2023-04-05T02:21:08.457Z,67.83
2023-04-05T02:23:35.035Z,68.27
2023-04-05T02:26:01.667Z,68.66
2023-04-05T02:28:28.385Z,68.29
2023-04-05T02:30:55.599Z,69.00
2023-04-05T02:33:22.827Z,69.21
2023-04-05T02:35:51.647Z,69.65
2023-04-05T02:38:18.484Z,70.31
2023-04-05T02:40:51.457Z,70.56
2023-04-05T02:43:18.031Z,70.44
2023-04-05T02:45:46.709Z,69.97
2023-04-05T02:48:13.705Z,69.58
2023-04-05T02:50:40.597Z,69.70
2023-04-05T02:53:07.310Z,70.06
2023-04-05T02:55:34.147Z,70.18
2023-04-05T02:58:01.593Z,70.26
2023-04-05T03:00:28.172Z,69.94
2023-04-05T03:02:55.890Z,70.92
2023-04-05T03:05:22.636Z,70.34
2023-04-05T03:07:51.262Z,70.23
2023-04-05T03:10:18.939Z,71.56
2023-04-05T03:12:46.243Z,71.16
2023-04-05T03:15:12.815Z,70.57
2023-04-05T03:17:39.358Z,70.52
2023-04-05T03:20:07.245Z,71.20
2023-04-05T03:22:33.765Z,70.71
2023-04-05T03:25:00.264Z,72.04
2023-04-05T03:27:27.295Z,72.66
2023-04-05T03:29:53.780Z,72.57
2023-04-05T03:32:20.285Z,74.04
2023-04-05T03:34:46.786Z,74.52
2023-04-05T03:37:13.333Z,75.55
2023-04-05T03:39:39.804Z,74.98
2023-04-05T03:42:06.323Z,76.96
2023-04-05T03:44:32.889Z,76.50
2023-04-05T03:46:59.570Z,76.31
2023-04-05T03:49:26.290Z,75.23
2023-04-05T03:51:52.840Z,76.97
2023-04-05T03:54:19.332Z,77.03
2023-04-05T03:56:46.067Z,79.03
2023-04-05T03:59:12.644Z,78.02
2023-04-05T04:01:39.394Z,78.01
2023-04-05T04:04:06.153Z,79.01
2023-04-05T04:06:32.722Z,76.99
2023-04-05T04:08:59.283Z,81.03
2023-04-05T04:11:26.077Z,80.12
2023-04-05T04:13:53.145Z,81.56
2023-04-05T04:16:19.674Z,79.91
2023-04-05T04:18:46.247Z,78.62
2023-04-05T04:21:13.561Z,80.69
2023-04-05T04:23:40.108Z,80.62
2023-04-05T04:26:06.586Z,81.72
2023-04-05T04:28:34.824Z,83.17
2023-04-05T04:31:04.925Z,81.17
2023-04-05T04:33:31.509Z,80.71
2023-04-05T04:35:58.053Z,80.83
2023-04-05T04:38:26.088Z,82.27
2023-04-05T04:40:53.825Z,83.82
2023-04-05T04:43:27.318Z,81.26
2023-04-05T04:45:56.417Z,81.19
2023-04-05T04:48:22.977Z,80.77
2023-04-05T04:50:52.263Z,80.63
2023-04-05T04:53:18.872Z,81.01
2023-04-05T04:55:45.848Z,81.82
2023-04-05T04:58:13.372Z,81.66
2023-04-05T05:00:44.469Z,81.66
2023-04-05T05:03:11.801Z,80.90
2023-04-05T05:05:46.870Z,81.34
2023-04-05T05:08:14.119Z,85.88
2023-04-05T05:10:41.128Z,88.39
2023-04-05T05:13:07.912Z,86.79
2023-04-05T05:15:34.464Z,89.18
2023-04-05T05:18:01.029Z,88.25
2023-04-05T05:20:28.590Z,85.99
2023-04-05T05:22:55.660Z,84.03
2023-04-05T05:25:22.424Z,82.47
2023-04-05T05:27:50.966Z,82.02
2023-04-05T05:30:18.487Z,81.09
2023-04-05T05:32:45.036Z,80.21
2023-04-05T05:35:11.555Z,79.16
2023-04-05T05:37:38.264Z,76.91
2023-04-05T05:40:05.288Z,74.44
2023-04-05T05:42:34.726Z,72.45
2023-04-05T05:45:05.050Z,71.78
2023-04-05T05:47:32.081Z,70.42
2023-04-05T05:49:58.648Z,71.99
2023-04-05T05:52:25.252Z,67.66
2023-04-05T05:54:51.907Z,67.49
2023-04-05T05:57:18.443Z,65.94
2023-04-05T05:59:44.914Z,64.94
2023-04-05T06:02:11.459Z,64.09
2023-04-05T06:04:38.050Z,63.46
2023-04-05T06:07:04.614Z,63.07
2023-04-05T06:09:33.952Z,62.60
2023-04-05T06:12:01.037Z,62.00
2023-04-05T06:14:29.746Z,60.99
2023-04-05T06:16:56.490Z,59.74
2023-04-05T06:19:23.316Z,59.85
2023-04-05T06:21:49.923Z,59.28
2023-04-05T06:24:16.434Z,57.84
2023-04-05T06:26:43.114Z,52.80
2023-04-05T06:29:09.696Z,49.15
2023-04-05T06:31:36.719Z,47.89
2023-04-05T06:34:03.485Z,48.47
2023-04-05T06:36:32.066Z,48.48
2023-04-05T06:38:59.527Z,48.06
2023-04-05T06:41:27.682Z,46.95
2023-04-05T06:43:54.857Z,47.50
2023-04-05T06:46:21.541Z,47.81
2023-04-05T06:48:49.883Z,48.33
2023-04-05T06:51:16.571Z,47.67
2023-04-05T06:53:43.150Z,46.85
2023-04-05T06:56:09.800Z,47.48
2023-04-05T06:58:36.834Z,47.65
2023-04-05T07:01:03.433Z,46.33
2023-04-05T07:03:30.019Z,46.43
2023-04-05T07:05:59.199Z,46.37
2023-04-05T07:08:27.592Z,46.76
2023-04-05T07:10:54.244Z,46.90
2023-04-05T07:13:22.723Z,45.80
2023-04-05T07:15:49.311Z,47.12
2023-04-05T07:18:15.948Z,46.89
2023-04-05T07:20:42.859Z,45.24
2023-04-05T07:23:09.747Z,43.95
2023-04-05T07:25:36.323Z,44.29
2023-04-05T07:28:02.859Z,44.84
2023-04-05T07:30:31.830Z,43.74
2023-04-05T07:32:58.622Z,44.53
2023-04-05T07:35:25.428Z,44.08
2023-04-05T07:37:52.446Z,44.08
2023-04-05T07:40:19.156Z,44.43
2023-04-05T07:42:45.836Z,43.91
2023-04-05T07:45:12.363Z,42.90
2023-04-05T07:47:39.041Z,43.02
2023-04-05T07:50:07.168Z,40.71
2023-04-05T07:52:34.340Z,42.35
2023-04-05T07:55:00.956Z,40.74
2023-04-05T07:57:27.474Z,41.24
2023-04-05T07:59:55.766Z,39.80
2023-04-05T08:02:22.481Z,40.24
2023-04-05T08:04:49.047Z,39.01
2023-04-05T08:07:15.848Z,37.89
2023-04-05T08:09:42.340Z,36.97
2023-04-05T08:12:08.922Z,38.31
2023-04-05T08:14:35.676Z,36.69
2023-04-05T08:17:02.171Z,35.74
2023-04-05T08:19:28.718Z,35.85
2023-04-05T08:21:55.295Z,33.29
2023-04-05T08:24:21.888Z,34.68
2023-04-05T08:26:48.814Z,33.43
2023-04-05T08:29:15.279Z,30.23
2023-04-05T08:31:41.774Z,30.25
2023-04-05T08:34:08.547Z,28.63
2023-04-05T08:36:35.137Z,27.20
2023-04-05T08:39:01.645Z,26.70
2023-04-05T08:41:41.359Z,26.57
2023-04-05T08:44:10.648Z,26.65
2023-04-05T08:46:37.706Z,26.64
2023-04-05T08:49:08.340Z,26.03
2023-04-05T08:51:41.757Z,25.85
2023-04-05T08:54:08.554Z,25.59
2023-04-05T08:56:36.252Z,25.46
2023-04-05T08:59:05.222Z,27.44
2023-04-05T09:01:33.057Z,25.53
2023-04-05T09:04:09.585Z,27.03
2023-04-05T09:06:36.764Z,28.61
2023-04-05T09:09:07.978Z,28.52
2023-04-05T09:11:35.442Z,28.74
2023-04-05T09:14:06.067Z,29.31
2023-04-05T09:16:37.036Z,28.11
2023-04-05T09:19:04.167Z,28.13
2023-04-05T09:21:30.782Z,27.21
2023-04-05T09:23:57.316Z,27.84
2023-04-05T09:26:24.910Z,27.69
2023-04-05T09:28:52.232Z,27.14
2023-04-05T09:31:35.494Z,25.87
2023-04-05T09:34:05.912Z,26.09
2023-04-05T09:36:36.472Z,25.82
2023-04-05T09:39:08.299Z,27.34
2023-04-05T09:41:36.048Z,29.01
2023-04-05T09:44:03.036Z,28.79
2023-04-05T09:46:39.602Z,27.19
2023-04-05T09:49:07.959Z,29.49
2023-04-05T09:51:35.758Z,30.30
2023-04-05T09:54:05.445Z,29.86
2023-04-05T09:56:35.751Z,30.49
2023-04-05T09:59:07.748Z,30.62
2023-04-05T10:01:34.449Z,32.04
2023-04-05T10:04:01.246Z,32.68
2023-04-05T10:06:42.184Z,32.33
2023-04-05T10:09:10.268Z,32.01
2023-04-05T10:11:38.339Z,29.52
2023-04-05T10:14:07.332Z,30.25
2023-04-05T10:16:57.657Z,23.58
2023-04-05T10:19:32.334Z,19.65
2023-04-05T10:22:02.632Z,17.15
2023-04-05T10:24:40.669Z,16.18
2023-04-05T10:27:13.036Z,18.98
2023-04-05T10:29:56.506Z,21.57
2023-04-05T10:32:52.347Z,24.91
2023-04-05T10:35:49.788Z,26.20
2023-04-05T10:38:26.820Z,26.00
2023-04-05T10:41:15.066Z,21.33
2023-04-05T10:43:42.657Z,17.78
2023-04-05T10:46:10.978Z,14.98
2023-04-05T10:49:01.857Z,15.20
2023-04-05T10:51:29.690Z,14.24
2023-04-05T10:53:57.105Z,13.77
2023-04-05T10:56:25.108Z,14.64
2023-04-05T10:58:53.144Z,13.61
2023-04-05T11:01:21.466Z,13.23
2023-04-05T11:03:49.851Z,12.99
2023-04-05T11:06:22.475Z,12.87
2023-04-05T11:08:52.991Z,12.61
2023-04-05T11:11:22.497Z,12.97
2023-04-05T11:13:56.673Z,12.94
2023-04-05T11:16:38.022Z,11.67
2023-04-05T11:19:04.651Z,12.18
2023-04-05T11:21:31.444Z,11.95
2023-04-05T11:24:15.241Z,12.37
2023-04-05T11:26:47.850Z,11.89
2023-04-05T11:29:16.302Z,12.56
2023-04-05T11:32:11.566Z,13.52
2023-04-05T11:34:38.226Z,13.80
2023-04-05T11:37:04.774Z,14.00
2023-04-05T11:39:31.353Z,11.97
2023-04-05T11:42:12.272Z,12.83
2023-04-05T11:44:46.932Z,13.20
2023-04-05T11:47:16.938Z,12.52
2023-04-05T11:49:43.703Z,12.45
2023-04-05T11:52:12.517Z,12.42
2023-04-05T11:54:39.925Z,12.64
2023-04-05T11:57:06.911Z,12.36
2023-04-05T11:59:36.560Z,12.99
2023-04-05T12:02:08.261Z,12.80
2023-04-05T12:04:36.210Z,11.56
2023-04-05T12:07:10.999Z,12.18
2023-04-05T12:10:01.327Z,13.58
2023-04-05T12:12:28.218Z,13.59
2023-04-05T12:15:05.061Z,14.48
2023-04-05T12:17:46.704Z,16.84
2023-04-05T12:20:19.757Z,17.83
2023-04-05T12:22:51.121Z,17.29
2023-04-05T12:25:19.820Z,16.62
2023-04-05T12:27:47.006Z,15.12
2023-04-05T12:30:16.687Z,13.88
2023-04-05T12:32:45.781Z,13.54
2023-04-05T12:35:21.941Z,13.23
2023-04-05T12:37:51.127Z,13.38
2023-04-05T12:40:24.518Z,13.31
2023-04-05T12:42:52.218Z,13.31
2023-04-05T12:45:18.877Z,13.70
2023-04-05T12:47:50.714Z,12.38
2023-04-05T12:50:18.894Z,13.27
2023-04-05T12:52:59.412Z,12.44
2023-04-05T12:55:30.190Z,13.81
2023-04-05T12:58:01.778Z,13.40
2023-04-05T13:00:30.045Z,12.97
2023-04-05T13:02:58.200Z,12.89
2023-04-05T13:05:30.358Z,13.82
2023-04-05T13:07:58.337Z,15.62
2023-04-05T13:10:26.008Z,17.65
2023-04-05T13:12:52.587Z,17.67
2023-04-05T13:15:19.368Z,16.61
2023-04-05T13:17:49.883Z,15.10
2023-04-05T13:20:18.018Z,13.17
2023-04-05T13:22:45.509Z,13.71
2023-04-05T13:25:12.363Z,13.50
2023-04-05T13:27:38.949Z,12.86
2023-04-05T13:30:05.972Z,12.26
2023-04-05T13:32:33.559Z,13.92
2023-04-05T13:35:00.401Z,15.83
2023-04-05T13:37:26.928Z,17.17
2023-04-05T13:39:53.455Z,19.20
2023-04-05T13:42:20.467Z,20.29
2023-04-05T13:44:46.965Z,22.11
2023-04-05T13:47:14.940Z,22.95
2023-04-05T13:49:41.970Z,22.91
2023-04-05T13:52:08.627Z,23.94
2023-04-05T13:54:35.530Z,24.38
2023-04-05T13:57:02.008Z,24.91
2023-04-05T13:59:28.577Z,25.61
2023-04-05T14:01:55.385Z,26.58
2023-04-05T14:04:22.094Z,27.08
2023-04-05T14:06:48.616Z,27.79
2023-04-05T14:09:15.448Z,27.96
2023-04-05T14:11:42.217Z,28.18
2023-04-05T14:14:08.746Z,27.80
2023-04-05T14:16:35.532Z,28.32
2023-04-05T14:19:02.141Z,28.89
2023-04-05T14:21:28.752Z,28.58
2023-04-05T14:23:57.926Z,29.08
2023-04-05T14:26:26.214Z,29.02
2023-04-05T14:28:53.448Z,29.80
2023-04-05T14:31:20.403Z,29.37
2023-04-05T14:33:47.008Z,28.89
2023-04-05T14:36:13.651Z,29.77
2023-04-05T14:38:40.218Z,30.13
2023-04-05T14:41:06.857Z,30.68
2023-04-05T14:43:33.428Z,30.67
2023-04-05T14:46:00.101Z,31.08
2023-04-05T14:48:28.070Z,31.29
2023-04-05T14:50:54.656Z,30.89
2023-04-05T14:53:21.425Z,31.07
2023-04-05T14:55:47.996Z,31.11
2023-04-05T14:58:14.764Z,31.41
2023-04-05T15:00:41.587Z,31.25
2023-04-05T15:03:08.982Z,31.63
2023-04-05T15:05:35.784Z,31.69
2023-04-05T15:08:02.611Z,32.39
2023-04-05T15:10:29.209Z,32.04
2023-04-05T15:12:56.645Z,32.72
2023-04-05T15:15:23.192Z,32.85
2023-04-05T15:17:49.809Z,33.52
2023-04-05T15:20:16.456Z,33.33
2023-04-05T15:22:43.146Z,33.40
2023-04-05T15:25:10.696Z,33.33
2023-04-05T15:27:37.286Z,34.36
2023-04-05T15:30:04.196Z,34.25
2023-04-05T15:32:33.758Z,34.65
2023-04-05T15:35:01.345Z,34.58
2023-04-05T15:37:28.277Z,34.43
2023-04-05T15:39:54.958Z,34.27
2023-04-05T15:42:22.012Z,34.48
2023-04-05T15:44:49.148Z,34.47
2023-04-05T15:47:15.885Z,34.39
2023-04-05T15:49:43.553Z,34.50
2023-04-05T15:52:11.422Z,34.46
2023-04-05T15:54:38.096Z,34.56
2023-04-05T15:57:04.868Z,34.50
2023-04-05T15:59:31.539Z,34.69
2023-04-05T16:01:58.239Z,34.94
2023-04-05T16:04:27.040Z,35.34
2023-04-05T16:06:54.882Z,35.59
2023-04-05T16:09:22.171Z,35.84
2023-04-05T16:11:49.110Z,35.76
2023-04-05T16:14:15.996Z,36.26
2023-04-05T16:16:53.155Z,36.92
2023-04-05T16:19:21.141Z,36.41
2023-04-05T16:21:47.812Z,36.25
2023-04-05T16:24:14.402Z,36.24
2023-04-05T16:26:41.347Z,36.49
2023-04-05T16:29:07.921Z,36.73
2023-04-05T16:31:36.193Z,36.95
2023-04-05T16:34:03.011Z,36.37
2023-04-05T16:36:29.643Z,36.32
2023-04-05T16:38:56.168Z,36.56
2023-04-05T16:41:22.730Z,36.68
2023-04-05T16:43:49.388Z,36.97
2023-04-05T16:46:15.989Z,37.75
2023-04-05T16:48:42.580Z,37.84
2023-04-05T16:51:09.162Z,37.42
2023-04-05T16:53:35.817Z,37.36
2023-04-05T16:56:03.883Z,37.86
2023-04-05T16:58:30.450Z,37.87
2023-04-05T17:01:00.699Z,38.72
2023-04-05T17:03:27.908Z,38.42
2023-04-05T17:06:08.334Z,38.10
2023-04-05T17:08:59.196Z,38.41
2023-04-05T17:11:38.523Z,38.85
2023-04-05T17:14:05.607Z,38.86
2023-04-05T17:16:32.296Z,38.97
2023-04-05T17:18:58.799Z,39.05
2023-04-05T17:21:26.160Z,38.84
2023-04-05T17:23:52.721Z,39.05
2023-04-05T17:26:19.268Z,38.98
2023-04-05T17:28:46.235Z,39.41
2023-04-05T17:31:12.779Z,39.67
2023-04-05T17:33:40.364Z,39.67
2023-04-05T17:36:07.356Z,40.59
2023-04-05T17:38:34.392Z,40.35
2023-04-05T17:41:00.936Z,40.48
2023-04-05T17:43:27.527Z,41.06
2023-04-05T17:45:54.526Z,41.30
2023-04-05T17:48:21.327Z,42.01
2023-04-05T17:50:47.905Z,41.81
2023-04-05T17:53:15.823Z,41.77
2023-04-05T17:55:43.397Z,42.16
2023-04-05T17:58:10.391Z,42.16
2023-04-05T18:00:37.038Z,41.89
2023-04-05T18:03:07.624Z,42.87
2023-04-05T18:05:35.055Z,43.10
2023-04-05T18:08:01.641Z,42.84
2023-04-05T18:10:28.390Z,43.58
2023-04-05T18:12:55.181Z,45.85
2023-04-05T18:15:21.965Z,46.21
2023-04-05T18:17:48.601Z,46.04
2023-04-05T18:20:15.294Z,48.52
2023-04-05T18:22:42.414Z,50.52
2023-04-05T18:25:11.458Z,50.31
2023-04-05T18:27:39.330Z,50.98
2023-04-05T18:30:06.719Z,50.08
2023-04-05T18:32:33.563Z,50.43
2023-04-05T18:35:00.440Z,51.66
2023-04-05T18:37:27.493Z,52.16
2023-04-05T18:39:54.056Z,53.20
2023-04-05T18:42:20.752Z,55.98
2023-04-05T18:44:47.569Z,54.59
2023-04-05T18:47:14.171Z,54.02
2023-04-05T18:49:41.054Z,55.56
2023-04-05T18:52:07.600Z,55.21
2023-04-05T18:54:34.129Z,56.77
2023-04-05T18:57:00.810Z,58.70
2023-04-05T18:59:29.291Z,57.08
2023-04-05T19:01:56.203Z,58.66
2023-04-05T19:04:22.937Z,61.07
2023-04-05T19:06:49.509Z,62.07
2023-04-05T19:09:17.072Z,60.01
2023-04-05T19:11:43.717Z,59.35
2023-04-05T19:14:10.420Z,63.22
2023-04-05T19:16:37.210Z,61.80
2023-04-05T19:19:06.200Z,62.14
2023-04-05T19:21:33.050Z,61.61
2023-04-05T19:23:59.860Z,59.81
2023-04-05T19:26:26.562Z,62.63
2023-04-05T19:28:53.186Z,63.26
2023-04-05T19:31:19.813Z,63.64
2023-04-05T19:33:46.376Z,64.14
2023-04-05T19:36:12.970Z,65.20
2023-04-05T19:38:39.928Z,65.48
2023-04-05T19:41:06.650Z,64.51
2023-04-05T19:43:36.543Z,65.78
2023-04-05T19:46:07.210Z,64.98
2023-04-05T19:48:41.596Z,66.90
2023-04-05T19:51:09.639Z,66.77
2023-04-05T19:53:42.998Z,68.76
2023-04-05T19:56:12.312Z,70.62
2023-04-05T19:58:39.129Z,69.92
2023-04-05T20:01:07.066Z,70.49
2023-04-05T20:03:36.773Z,71.40
2023-04-05T20:06:07.297Z,69.87
2023-04-05T20:08:36.728Z,67.70
2023-04-05T20:11:08.430Z,70.38
2023-04-05T20:13:41.220Z,69.68
2023-04-05T20:16:09.417Z,71.25
2023-04-05T20:18:39.458Z,69.56
2023-04-05T20:21:06.935Z,69.91
2023-04-05T20:23:33.533Z,72.00
2023-04-05T20:26:00.310Z,70.11
2023-04-05T20:28:43.202Z,72.69
2023-04-05T20:31:17.418Z,71.04
2023-04-05T20:33:53.981Z,70.72
2023-04-05T20:36:23.339Z,70.67
2023-04-05T20:38:50.653Z,71.91
2023-04-05T20:41:18.997Z,71.74
2023-04-05T20:43:46.298Z,69.36
2023-04-05T20:46:13.578Z,71.50
2023-04-05T20:48:40.379Z,74.38
2023-04-05T20:51:08.255Z,75.17
2023-04-05T20:53:36.552Z,75.51
2023-04-05T20:56:04.783Z,77.23
2023-04-05T20:58:31.528Z,75.63
2023-04-05T21:00:58.277Z,75.90
2023-04-05T21:03:24.895Z,75.93
2023-04-05T21:05:51.615Z,75.87
2023-04-05T21:08:18.336Z,75.50
2023-04-05T21:10:45.926Z,75.98
2023-04-05T21:13:12.490Z,76.48
2023-04-05T21:15:39.057Z,76.67
2023-04-05T21:18:07.712Z,76.08
2023-04-05T21:20:37.825Z,77.95
2023-04-05T21:23:04.973Z,78.80
2023-04-05T21:25:32.067Z,79.86
2023-04-05T21:28:01.763Z,79.90
2023-04-05T21:30:28.919Z,78.80
2023-04-05T21:32:55.569Z,73.77
2023-04-05T21:35:22.631Z,77.15
2023-04-05T21:37:50.300Z,77.32
2023-04-05T21:40:17.811Z,79.65
2023-04-05T21:42:44.666Z,80.53
2023-04-05T21:45:11.730Z,77.00
2023-04-05T21:47:38.468Z,80.28
2023-04-05T21:50:06.140Z,79.33
2023-04-05T21:52:32.905Z,77.13
2023-04-05T21:54:59.458Z,76.26
2023-04-05T21:57:26.247Z,79.33
2023-04-05T21:59:52.775Z,83.45
2023-04-05T22:02:19.415Z,81.06
2023-04-05T22:04:46.034Z,81.87
2023-04-05T22:07:12.635Z,82.35
2023-04-05T22:09:39.541Z,83.30
2023-04-05T22:12:06.706Z,84.51
2023-04-05T22:14:33.248Z,81.55
2023-04-05T22:16:59.938Z,80.60
2023-04-05T22:19:26.623Z,81.34
2023-04-05T22:21:55.257Z,81.42
2023-04-05T22:24:26.164Z,85.66
2023-04-05T22:26:53.421Z,85.39
2023-04-05T22:29:21.783Z,87.15
2023-04-05T22:31:49.303Z,83.21
2023-04-05T22:34:16.250Z,83.75
2023-04-05T22:36:42.936Z,84.81
2023-04-05T22:39:10.865Z,84.80
2023-04-05T22:41:37.642Z,86.60
2023-04-05T22:44:04.313Z,85.69
2023-04-05T22:46:30.919Z,83.84
2023-04-05T22:48:57.855Z,85.23
2023-04-05T22:51:24.498Z,89.23
2023-04-05T22:53:51.140Z,88.06
2023-04-05T22:56:19.738Z,87.48
2023-04-05T22:58:46.542Z,88.51
2023-04-05T23:01:13.163Z,85.00
2023-04-05T23:03:39.672Z,84.93
2023-04-05T23:06:06.480Z,87.54
2023-04-05T23:08:33.663Z,85.92
2023-04-05T23:11:00.350Z,87.67
2023-04-05T23:13:26.998Z,87.96
2023-04-05T23:15:53.622Z,88.60
2023-04-05T23:18:22.794Z,88.48
2023-04-05T23:20:49.785Z,91.07
2023-04-05T23:23:16.338Z,87.20
2023-04-05T23:25:42.874Z,89.36
2023-04-05T23:28:09.358Z,93.05
2023-04-05T23:30:35.878Z,89.83
2023-04-05T23:33:02.422Z,93.04
2023-04-05T23:35:29.156Z,89.60
2023-04-05T23:37:55.737Z,88.28
2023-04-05T23:40:22.247Z,89.12
2023-04-05T23:42:48.827Z,88.86
2023-04-05T23:45:15.598Z,91.48
2023-04-05T23:47:42.224Z,93.05
2023-04-05T23:50:09.594Z,91.68
2023-04-05T23:52:36.300Z,89.31
2023-04-05T23:55:02.926Z,92.67
2023-04-05T23:57:29.499Z,90.45
2023-04-05T23:59:56.008Z,89.82
